createdAt,value
2023-05-06T00:00:23.762Z,64.98
2023-05-06T00:01:23.754Z,65.50
2023-05-06T00:02:23.921Z,64.96
2023-05-06T00:03:23.805Z,65.21
2023-05-06T00:04:23.802Z,63.66
2023-05-06T00:05:23.757Z,63.89
2023-05-06T00:06:23.726Z,63.63
2023-05-06T00:07:23.753Z,64.29
2023-05-06T00:08:23.691Z,64.19
2023-05-06T00:09:23.667Z,64.08
2023-05-06T00:10:23.655Z,64.13
2023-05-06T00:11:23.671Z,62.79
2023-05-06T00:12:23.645Z,64.41
2023-05-06T00:13:23.640Z,65.46
2023-05-06T00:14:23.640Z,64.70
2023-05-06T00:15:23.613Z,64.72
2023-05-06T00:16:23.651Z,64.50
2023-05-06T00:17:23.608Z,65.13
2023-05-06T00:18:23.706Z,63.95
2023-05-06T00:19:23.580Z,63.59
2023-05-06T00:20:23.625Z,64.57
2023-05-06T00:21:23.585Z,66.44
2023-05-06T00:22:23.564Z,64.69
2023-05-06T00:23:23.552Z,63.85
2023-05-06T00:24:23.513Z,64.79
2023-05-06T00:25:23.512Z,64.80
2023-05-06T00:26:23.516Z,65.01
2023-05-06T00:27:23.500Z,65.15
2023-05-06T00:28:23.482Z,64.75
2023-05-06T00:29:23.488Z,65.42
2023-05-06T00:30:23.479Z,64.34
2023-05-06T00:31:23.516Z,62.97
2023-05-06T00:32:23.547Z,64.41
2023-05-06T00:33:23.491Z,63.61
2023-05-06T00:34:23.552Z,64.80
2023-05-06T00:35:23.452Z,64.22
2023-05-06T00:36:23.406Z,65.91
2023-05-06T00:37:23.400Z,62.77
2023-05-06T00:38:23.387Z,65.46
2023-05-06T00:39:23.390Z,65.91
2023-05-06T00:40:23.367Z,63.55
2023-05-06T00:41:23.379Z,63.62
2023-05-06T00:42:23.370Z,65.10
2023-05-06T00:43:23.334Z,64.30
2023-05-06T00:44:23.325Z,64.87
2023-05-06T00:45:23.362Z,64.26
2023-05-06T00:46:23.455Z,64.03
2023-05-06T00:47:23.300Z,64.83
2023-05-06T00:48:23.301Z,66.28
2023-05-06T00:49:23.266Z,64.50
2023-05-06T00:50:23.421Z,64.05
2023-05-06T00:51:23.246Z,65.19
2023-05-06T00:52:23.238Z,65.82
2023-05-06T00:53:23.261Z,62.58
2023-05-06T00:54:23.221Z,62.42
2023-05-06T00:55:23.214Z,62.58
2023-05-06T00:56:23.200Z,64.35
2023-05-06T00:57:23.187Z,63.18
2023-05-06T00:58:23.190Z,63.50
2023-05-06T00:59:23.197Z,64.29
2023-05-06T01:00:23.177Z,65.23
2023-05-06T01:01:23.211Z,64.16
2023-05-06T01:02:26.267Z,65.70
2023-05-06T01:03:25.188Z,66.07
2023-05-06T01:04:23.123Z,67.20
2023-05-06T01:05:23.184Z,67.09
2023-05-06T01:06:23.181Z,65.60
2023-05-06T01:07:23.148Z,64.50
2023-05-06T01:08:23.097Z,65.35
2023-05-06T01:09:23.072Z,65.45
2023-05-06T01:10:23.094Z,63.12
2023-05-06T01:11:23.060Z,65.22
2023-05-06T01:12:23.064Z,65.20
2023-05-06T01:13:23.099Z,64.12
2023-05-06T01:14:23.025Z,65.93
2023-05-06T01:15:23.012Z,66.22
2023-05-06T01:16:23.055Z,63.75
2023-05-06T01:17:23.036Z,65.84
2023-05-06T01:18:23.050Z,63.64
2023-05-06T01:19:22.979Z,64.42
2023-05-06T01:20:22.966Z,64.19
2023-05-06T01:21:23.033Z,64.44
2023-05-06T01:22:22.968Z,65.91
2023-05-06T01:23:22.946Z,66.02
2023-05-06T01:24:22.938Z,65.84
2023-05-06T01:25:23.947Z,64.81
2023-05-06T01:26:22.919Z,64.25
2023-05-06T01:27:22.907Z,66.77
2023-05-06T01:28:22.892Z,65.55
2023-05-06T01:29:22.906Z,67.53
2023-05-06T01:30:22.928Z,65.20
2023-05-06T01:31:22.902Z,66.70
2023-05-06T01:32:22.881Z,65.76
2023-05-06T01:33:22.837Z,65.18
2023-05-06T01:34:22.870Z,67.73
2023-05-06T01:35:22.816Z,68.00
2023-05-06T01:36:22.826Z,66.99
2023-05-06T01:37:22.800Z,69.03
2023-05-06T01:38:22.900Z,69.08
2023-05-06T01:39:22.793Z,67.51
2023-05-06T01:40:22.768Z,66.47
2023-05-06T01:41:22.762Z,65.75
2023-05-06T01:42:22.757Z,65.28
2023-05-06T01:43:22.751Z,66.16
2023-05-06T01:44:22.742Z,65.92
2023-05-06T01:45:22.718Z,66.39
2023-05-06T01:46:22.824Z,64.21
2023-05-06T01:47:22.696Z,65.20
2023-05-06T01:48:22.704Z,66.49
2023-05-06T01:49:22.694Z,66.09
2023-05-06T01:50:22.669Z,63.92
2023-05-06T01:51:22.659Z,64.28
2023-05-06T01:52:22.649Z,64.76
2023-05-06T01:53:22.655Z,64.95
2023-05-06T01:54:22.632Z,64.87
2023-05-06T01:55:22.656Z,63.51
2023-05-06T01:56:22.620Z,65.87
2023-05-06T01:57:22.606Z,64.98
2023-05-06T01:58:22.610Z,66.33
2023-05-06T01:59:22.589Z,65.04
2023-05-06T02:00:22.568Z,65.24
2023-05-06T02:01:22.582Z,63.45
2023-05-06T02:02:22.585Z,64.06
2023-05-06T02:03:22.661Z,63.57
2023-05-06T02:04:22.529Z,65.69
2023-05-06T02:05:22.512Z,62.99
2023-05-06T02:06:22.504Z,64.03
2023-05-06T02:07:22.513Z,63.92
2023-05-06T02:08:22.495Z,64.44
2023-05-06T02:09:22.477Z,62.84
2023-05-06T02:10:22.537Z,62.44
2023-05-06T02:11:22.464Z,64.12
2023-05-06T02:12:22.461Z,65.23
2023-05-06T02:13:22.457Z,64.76
2023-05-06T02:14:22.425Z,62.96
2023-05-06T02:15:22.441Z,63.19
2023-05-06T02:16:22.430Z,66.15
2023-05-06T02:17:22.451Z,64.19
2023-05-06T02:18:22.386Z,64.14
2023-05-06T02:19:22.372Z,63.64
2023-05-06T02:20:22.375Z,61.95
2023-05-06T02:21:22.383Z,64.35
2023-05-06T02:22:22.364Z,66.39
2023-05-06T02:23:22.347Z,64.87
2023-05-06T02:24:22.337Z,67.42
2023-05-06T02:25:22.334Z,64.70
2023-05-06T02:26:22.445Z,64.73
2023-05-06T02:27:22.300Z,64.16
2023-05-06T02:28:22.287Z,67.19
2023-05-06T02:29:22.280Z,64.96
2023-05-06T02:30:22.272Z,67.14
2023-05-06T02:31:22.294Z,64.81
2023-05-06T02:32:22.266Z,64.16
2023-05-06T02:33:22.238Z,67.03
2023-05-06T02:34:22.230Z,65.47
2023-05-06T02:35:22.233Z,65.61
2023-05-06T02:36:22.217Z,64.64
2023-05-06T02:37:22.209Z,68.36
2023-05-06T02:38:23.181Z,63.81
2023-05-06T02:39:22.173Z,63.86
2023-05-06T02:40:22.196Z,64.93
2023-05-06T02:41:22.170Z,64.36
2023-05-06T02:42:22.176Z,64.58
2023-05-06T02:43:22.130Z,64.36
2023-05-06T02:44:22.145Z,66.88
2023-05-06T02:45:22.139Z,64.84
2023-05-06T02:46:22.210Z,65.06
2023-05-06T02:47:22.144Z,63.78
2023-05-06T02:48:22.082Z,64.66
2023-05-06T02:49:22.087Z,65.22
2023-05-06T02:50:22.084Z,65.49
2023-05-06T02:51:22.053Z,64.42
2023-05-06T02:52:22.039Z,64.92
2023-05-06T02:53:22.046Z,65.23
2023-05-06T02:54:22.047Z,67.04
2023-05-06T02:55:22.022Z,66.76
2023-05-06T02:56:22.001Z,68.38
2023-05-06T02:57:21.996Z,65.60
2023-05-06T02:58:21.995Z,64.50
2023-05-06T02:59:22.000Z,66.20
2023-05-06T03:00:21.965Z,67.32
2023-05-06T03:01:21.979Z,66.36
2023-05-06T03:02:21.975Z,65.95
2023-05-06T03:03:21.947Z,64.82
2023-05-06T03:04:22.001Z,67.39
2023-05-06T03:05:21.915Z,65.28
2023-05-06T03:06:21.903Z,67.74
2023-05-06T03:07:21.895Z,67.86
2023-05-06T03:08:21.924Z,67.07
2023-05-06T03:09:21.884Z,66.84
2023-05-06T03:10:21.872Z,64.50
2023-05-06T03:11:21.862Z,67.79
2023-05-06T03:12:21.833Z,66.83
2023-05-06T03:13:21.988Z,63.88
2023-05-06T03:14:21.883Z,64.56
2023-05-06T03:15:21.826Z,64.08
2023-05-06T03:16:21.853Z,66.73
2023-05-06T03:17:21.817Z,67.19
2023-05-06T03:18:21.802Z,67.18
2023-05-06T03:19:21.763Z,67.38
2023-05-06T03:20:21.786Z,66.55
2023-05-06T03:21:21.798Z,68.67
2023-05-06T03:22:21.753Z,66.19
2023-05-06T03:23:21.726Z,67.37
2023-05-06T03:24:21.720Z,66.16
2023-05-06T03:25:21.708Z,68.53
2023-05-06T03:26:21.698Z,65.66
2023-05-06T03:27:21.736Z,66.56
2023-05-06T03:28:21.684Z,68.57
2023-05-06T03:29:21.668Z,65.72
2023-05-06T03:30:21.775Z,63.77
2023-05-06T03:31:21.694Z,66.62
2023-05-06T03:32:21.650Z,65.94
2023-05-06T03:33:21.636Z,65.49
2023-05-06T03:34:21.623Z,65.54
2023-05-06T03:35:21.639Z,65.80
2023-05-06T03:36:21.613Z,64.17
2023-05-06T03:37:21.585Z,65.67
2023-05-06T03:38:22.581Z,68.26
2023-05-06T03:39:21.572Z,66.64
2023-05-06T03:40:21.567Z,66.83
2023-05-06T03:41:21.567Z,66.89
2023-05-06T03:42:21.556Z,66.45
2023-05-06T03:43:21.550Z,65.41
2023-05-06T03:44:21.514Z,67.08
2023-05-06T03:45:21.512Z,65.67
2023-05-06T03:46:21.625Z,67.32
2023-05-06T03:47:21.522Z,67.45
2023-05-06T03:48:21.503Z,67.75
2023-05-06T03:49:21.468Z,67.35
2023-05-06T03:50:21.465Z,66.70
2023-05-06T03:51:21.449Z,68.42
2023-05-06T03:52:21.429Z,67.63
2023-05-06T03:53:21.427Z,68.55
2023-05-06T03:54:21.417Z,66.17
2023-05-06T03:55:21.426Z,65.48
2023-05-06T03:56:21.402Z,66.93
2023-05-06T03:57:21.396Z,67.64
2023-05-06T03:58:21.386Z,67.97
2023-05-06T03:59:21.394Z,66.00
2023-05-06T04:00:21.382Z,68.77
2023-05-06T04:01:21.348Z,67.01
2023-05-06T04:02:21.499Z,66.19
2023-05-06T04:03:21.366Z,68.23
2023-05-06T04:04:21.343Z,68.73
2023-05-06T04:05:21.301Z,66.77
2023-05-06T04:06:21.311Z,68.83
2023-05-06T04:07:21.281Z,67.47
2023-05-06T04:08:21.316Z,68.56
2023-05-06T04:09:21.294Z,68.29
2023-05-06T04:10:21.263Z,67.22
2023-05-06T04:11:21.248Z,69.14
2023-05-06T04:12:21.235Z,68.49
2023-05-06T04:13:21.296Z,67.83
2023-05-06T04:14:21.221Z,67.17
2023-05-06T04:15:21.202Z,67.54
2023-05-06T04:16:21.244Z,69.48
2023-05-06T04:17:21.188Z,68.40
2023-05-06T04:18:21.333Z,66.91
2023-05-06T04:19:21.160Z,67.64
2023-05-06T04:20:53.090Z,66.01
2023-05-06T04:21:21.139Z,67.83
2023-05-06T04:22:21.149Z,67.96
2023-05-06T04:23:21.140Z,68.32
2023-05-06T04:24:21.119Z,66.80
2023-05-06T04:25:21.132Z,66.38
2023-05-06T04:26:21.095Z,68.16
2023-05-06T04:27:21.130Z,67.18
2023-05-06T04:28:21.092Z,68.52
2023-05-06T04:29:21.062Z,68.21
2023-05-06T04:30:21.070Z,67.61
2023-05-06T04:31:21.156Z,70.23
2023-05-06T04:32:21.090Z,69.03
2023-05-06T04:33:21.032Z,67.98
2023-05-06T04:34:21.090Z,68.75
2023-05-06T04:35:21.027Z,71.30
2023-05-06T04:36:21.090Z,70.80
2023-05-06T04:37:20.999Z,70.30
2023-05-06T04:38:20.978Z,70.61
2023-05-06T04:39:21.017Z,70.78
2023-05-06T04:40:20.956Z,70.78
2023-05-06T04:41:20.965Z,70.20
2023-05-06T04:42:20.936Z,68.40
2023-05-06T04:43:20.923Z,68.77
2023-05-06T04:44:20.938Z,67.92
2023-05-06T04:45:20.929Z,68.98
2023-05-06T04:46:21.004Z,69.31
2023-05-06T04:47:20.903Z,68.08
2023-05-06T04:48:20.889Z,67.04
2023-05-06T04:49:20.911Z,68.71
2023-05-06T04:50:20.957Z,68.92
2023-05-06T04:51:20.872Z,69.08
2023-05-06T04:52:20.833Z,68.03
2023-05-06T04:53:20.882Z,67.71
2023-05-06T04:54:20.858Z,66.62
2023-05-06T04:55:20.837Z,66.39
2023-05-06T04:56:20.805Z,67.77
2023-05-06T04:57:20.808Z,66.78
2023-05-06T04:58:20.787Z,67.96
2023-05-06T04:59:20.801Z,65.68
2023-05-06T05:00:20.753Z,66.52
2023-05-06T05:01:20.787Z,66.20
2023-05-06T05:02:20.813Z,66.78
2023-05-06T05:03:20.855Z,67.13
2023-05-06T05:04:20.744Z,66.42
2023-05-06T05:05:20.720Z,67.50
2023-05-06T05:06:20.756Z,67.65
2023-05-06T05:07:20.686Z,67.40
2023-05-06T05:08:20.713Z,68.09
2023-05-06T05:09:20.692Z,65.00
2023-05-06T05:10:20.659Z,66.72
2023-05-06T05:11:20.657Z,67.90
2023-05-06T05:12:20.636Z,68.82
2023-05-06T05:13:20.765Z,68.18
2023-05-06T05:14:20.651Z,67.97
2023-05-06T05:15:20.610Z,66.89
2023-05-06T05:16:20.598Z,66.55
2023-05-06T05:17:20.590Z,66.62
2023-05-06T05:18:20.584Z,66.15
2023-05-06T05:19:20.594Z,66.79
2023-05-06T05:20:20.558Z,67.39
2023-05-06T05:21:20.551Z,67.80
2023-05-06T05:22:20.600Z,68.63
2023-05-06T05:23:20.577Z,66.75
2023-05-06T05:24:20.512Z,66.64
2023-05-06T05:25:20.504Z,66.30
2023-05-06T05:26:20.492Z,65.65
2023-05-06T05:27:20.490Z,65.70
2023-05-06T05:28:20.491Z,66.69
2023-05-06T05:29:20.468Z,65.14
2023-05-06T05:30:20.456Z,66.24
2023-05-06T05:31:20.471Z,66.93
2023-05-06T05:32:20.512Z,65.07
2023-05-06T05:33:20.543Z,65.96
2023-05-06T05:34:20.409Z,65.62
2023-05-06T05:35:20.407Z,65.85
2023-05-06T05:36:20.397Z,64.31
2023-05-06T05:37:20.402Z,65.81
2023-05-06T05:38:20.430Z,67.11
2023-05-06T05:39:20.382Z,66.74
2023-05-06T05:40:20.365Z,66.76
2023-05-06T05:41:20.349Z,65.82
2023-05-06T05:42:20.351Z,66.09
2023-05-06T05:43:20.323Z,66.09
2023-05-06T05:44:20.323Z,66.30
2023-05-06T05:45:20.312Z,64.89
2023-05-06T05:46:20.338Z,64.98
2023-05-06T05:47:20.300Z,64.90
2023-05-06T05:48:20.277Z,63.87
2023-05-06T05:49:20.265Z,65.87
2023-05-06T05:50:20.273Z,64.40
2023-05-06T05:51:20.250Z,65.47
2023-05-06T05:52:20.241Z,63.54
2023-05-06T05:53:20.221Z,64.16
2023-05-06T05:54:20.353Z,65.01
2023-05-06T05:55:20.206Z,66.94
2023-05-06T05:56:20.208Z,65.73
2023-05-06T05:57:20.184Z,63.88
2023-05-06T05:58:20.240Z,64.16
2023-05-06T05:59:20.169Z,66.56
2023-05-06T06:00:20.183Z,63.81
2023-05-06T06:01:20.154Z,64.91
2023-05-06T06:02:20.264Z,62.92
2023-05-06T06:03:20.161Z,61.93
2023-05-06T06:04:20.131Z,65.01
2023-05-06T06:05:20.125Z,64.75
2023-05-06T06:06:20.089Z,64.65
2023-05-06T06:07:21.086Z,64.46
2023-05-06T06:08:20.074Z,65.15
2023-05-06T06:09:20.069Z,64.85
2023-05-06T06:10:20.193Z,63.46
2023-05-06T06:11:20.040Z,62.69
2023-05-06T06:12:20.030Z,62.89
2023-05-06T06:13:20.119Z,63.10
2023-05-06T06:14:20.043Z,61.17
2023-05-06T06:15:20.027Z,63.69
2023-05-06T06:16:20.039Z,64.27
2023-05-06T06:17:19.978Z,62.10
2023-05-06T06:18:19.970Z,63.53
2023-05-06T06:19:19.963Z,61.15
2023-05-06T06:20:20.951Z,63.77
2023-05-06T06:21:19.947Z,61.47
2023-05-06T06:22:19.933Z,62.14
2023-05-06T06:23:19.938Z,61.53
2023-05-06T06:24:19.933Z,63.90
2023-05-06T06:25:19.918Z,61.63
2023-05-06T06:26:19.961Z,59.77
2023-05-06T06:27:19.880Z,61.52
2023-05-06T06:28:19.891Z,63.69
2023-05-06T06:29:19.878Z,62.72
2023-05-06T06:30:19.854Z,62.55
2023-05-06T06:31:19.860Z,64.22
2023-05-06T06:32:19.950Z,62.47
2023-05-06T06:33:19.842Z,62.61
2023-05-06T06:34:19.808Z,62.58
2023-05-06T06:35:19.813Z,63.36
2023-05-06T06:36:19.794Z,63.82
2023-05-06T06:37:19.791Z,61.69
2023-05-06T06:38:19.788Z,64.37
2023-05-06T06:39:19.785Z,62.47
2023-05-06T06:40:19.756Z,61.61
2023-05-06T06:41:19.750Z,62.90
2023-05-06T06:42:19.878Z,64.23
2023-05-06T06:43:19.733Z,63.85
2023-05-06T06:44:19.717Z,63.84
2023-05-06T06:45:19.712Z,62.68
2023-05-06T06:46:19.707Z,62.95
2023-05-06T06:47:19.691Z,63.88
2023-05-06T06:48:19.679Z,63.09
2023-05-06T06:49:19.660Z,63.51
2023-05-06T06:50:19.681Z,63.69
2023-05-06T06:51:19.644Z,62.71
2023-05-06T06:52:19.652Z,60.95
2023-05-06T06:53:19.616Z,62.21
2023-05-06T06:54:19.605Z,61.63
2023-05-06T06:55:19.611Z,61.08
2023-05-06T06:56:19.607Z,60.58
2023-05-06T06:57:19.603Z,61.92
2023-05-06T06:58:19.632Z,61.39
2023-05-06T06:59:19.561Z,62.32
2023-05-06T07:00:19.567Z,63.95
2023-05-06T07:01:19.590Z,61.07
2023-05-06T07:02:19.539Z,64.79
2023-05-06T07:03:19.719Z,62.70
2023-05-06T07:04:19.573Z,61.99
2023-05-06T07:05:20.415Z,62.21
2023-05-06T07:06:19.519Z,60.28
2023-05-06T07:07:19.516Z,61.73
2023-05-06T07:08:19.485Z,59.65
2023-05-06T07:09:19.479Z,60.05
2023-05-06T07:10:19.458Z,61.17
2023-05-06T07:11:19.502Z,62.97
2023-05-06T07:12:19.464Z,64.03
2023-05-06T07:13:19.467Z,62.78
2023-05-06T07:14:19.480Z,63.40
2023-05-06T07:15:19.416Z,62.68
2023-05-06T07:16:19.459Z,60.99
2023-05-06T07:17:19.583Z,62.89
2023-05-06T07:18:19.413Z,61.84
2023-05-06T07:19:19.374Z,63.21
2023-05-06T07:20:19.364Z,62.59
2023-05-06T07:21:19.382Z,61.75
2023-05-06T07:22:19.359Z,64.79
2023-05-06T07:23:19.344Z,63.78
2023-05-06T07:24:19.344Z,61.41
2023-05-06T07:25:19.324Z,64.26
2023-05-06T07:26:19.311Z,62.31
2023-05-06T07:27:19.290Z,62.10
2023-05-06T07:28:19.291Z,60.94
2023-05-06T07:29:19.291Z,60.81
2023-05-06T07:30:21.054Z,60.44
2023-05-06T07:31:19.311Z,62.73
2023-05-06T07:32:19.299Z,61.18
2023-05-06T07:33:20.233Z,61.77
2023-05-06T07:34:19.239Z,61.33
2023-05-06T07:35:19.278Z,61.47
2023-05-06T07:36:19.220Z,60.66
2023-05-06T07:37:19.207Z,60.69
2023-05-06T07:38:19.210Z,62.98
2023-05-06T07:39:19.205Z,62.43
2023-05-06T07:40:19.180Z,60.70
2023-05-06T07:41:19.159Z,62.46
2023-05-06T07:42:19.161Z,62.22
2023-05-06T07:43:19.178Z,61.99
2023-05-06T07:44:19.178Z,60.53
2023-05-06T07:45:19.129Z,63.02
2023-05-06T07:46:19.300Z,61.88
2023-05-06T07:47:19.154Z,63.12
2023-05-06T07:48:19.952Z,61.08
2023-05-06T07:49:19.128Z,60.33
2023-05-06T07:50:19.068Z,61.04
2023-05-06T07:51:19.044Z,59.88
2023-05-06T07:52:20.056Z,61.01
2023-05-06T07:53:19.053Z,63.49
2023-05-06T07:54:19.044Z,61.47
2023-05-06T07:55:19.006Z,59.90
2023-05-06T07:56:19.030Z,62.88
2023-05-06T07:57:19.032Z,62.15
2023-05-06T07:58:19.003Z,61.07
2023-05-06T07:59:18.990Z,60.27
2023-05-06T08:00:18.971Z,63.43
2023-05-06T08:01:18.961Z,64.40
2023-05-06T08:02:19.019Z,61.29
2023-05-06T08:03:19.023Z,61.63
2023-05-06T08:04:18.979Z,62.94
2023-05-06T08:05:18.923Z,63.83
2023-05-06T08:06:18.945Z,60.74
2023-05-06T08:07:18.890Z,61.60
2023-05-06T08:08:18.909Z,60.05
2023-05-06T08:09:23.025Z,61.07
2023-05-06T08:10:19.867Z,60.17
2023-05-06T08:11:19.465Z,62.31
2023-05-06T08:12:19.849Z,61.53
2023-05-06T08:13:18.918Z,62.28
2023-05-06T08:14:18.844Z,60.09
2023-05-06T08:15:18.810Z,61.81
2023-05-06T08:16:18.880Z,61.54
2023-05-06T08:17:18.812Z,61.82
2023-05-06T08:18:22.908Z,61.97
2023-05-06T08:19:19.781Z,60.03
2023-05-06T08:20:18.803Z,62.80
2023-05-06T08:21:18.771Z,62.00
2023-05-06T08:22:18.762Z,64.08
2023-05-06T08:23:18.740Z,61.56
2023-05-06T08:24:18.737Z,61.30
2023-05-06T08:25:18.746Z,60.12
2023-05-06T08:26:18.717Z,61.76
2023-05-06T08:27:18.706Z,62.56
2023-05-06T08:28:18.706Z,60.97
2023-05-06T08:29:18.690Z,62.08
2023-05-06T08:30:18.727Z,62.53
2023-05-06T08:31:18.684Z,62.46
2023-05-06T08:32:18.665Z,61.33
2023-05-06T08:33:18.651Z,62.50
2023-05-06T08:34:18.683Z,62.43
2023-05-06T08:35:18.675Z,61.96
2023-05-06T08:36:18.624Z,61.26
2023-05-06T08:37:18.601Z,62.96
2023-05-06T08:38:18.597Z,61.29
2023-05-06T08:39:18.620Z,61.35
2023-05-06T08:40:18.600Z,62.87
2023-05-06T08:41:18.576Z,61.44
2023-05-06T08:42:18.607Z,61.30
2023-05-06T08:43:18.574Z,61.41
2023-05-06T08:44:18.548Z,61.16
2023-05-06T08:45:18.538Z,62.42
2023-05-06T08:46:18.720Z,61.28
2023-05-06T08:47:18.516Z,59.47
2023-05-06T08:48:19.496Z,60.00
2023-05-06T08:49:18.501Z,62.03
2023-05-06T08:50:18.502Z,61.38
2023-05-06T08:51:18.501Z,61.36
2023-05-06T08:52:18.486Z,61.93
2023-05-06T08:53:18.484Z,61.74
2023-05-06T08:54:18.448Z,60.67
2023-05-06T08:55:18.457Z,61.18
2023-05-06T08:56:18.430Z,59.21
2023-05-06T08:57:18.461Z,61.50
2023-05-06T08:58:18.439Z,59.67
2023-05-06T08:59:18.407Z,58.02
2023-05-06T09:00:18.398Z,59.73
2023-05-06T09:01:18.385Z,59.78
2023-05-06T09:02:18.415Z,64.31
2023-05-06T09:03:18.522Z,63.85
2023-05-06T09:04:18.356Z,65.52
2023-05-06T09:05:18.429Z,64.40
2023-05-06T09:06:18.329Z,65.61
2023-05-06T09:07:18.360Z,62.43
2023-05-06T09:08:18.310Z,61.61
2023-05-06T09:09:18.305Z,63.92
2023-05-06T09:10:18.302Z,67.16
2023-05-06T09:11:18.278Z,67.10
2023-05-06T09:12:19.304Z,67.03
2023-05-06T09:13:18.311Z,65.99
2023-05-06T09:14:18.268Z,65.39
2023-05-06T09:15:18.247Z,63.98
2023-05-06T09:16:18.250Z,61.49
2023-05-06T09:17:18.242Z,59.20
2023-05-06T09:18:18.213Z,60.10
2023-05-06T09:19:18.206Z,62.09
2023-05-06T09:20:18.238Z,63.61
2023-05-06T09:21:18.224Z,65.96
2023-05-06T09:22:18.303Z,61.22
2023-05-06T09:23:18.169Z,61.47
2023-05-06T09:24:18.160Z,65.41
2023-05-06T09:25:18.150Z,64.25
2023-05-06T09:26:18.158Z,61.86
2023-05-06T09:27:18.132Z,61.18
2023-05-06T09:28:18.118Z,62.83
2023-05-06T09:29:18.169Z,65.40
2023-05-06T09:30:18.105Z,65.60
2023-05-06T09:31:18.136Z,65.68
2023-05-06T09:32:18.137Z,63.45
2023-05-06T09:33:18.067Z,61.41
2023-05-06T09:34:18.128Z,62.36
2023-05-06T09:35:18.078Z,59.04
2023-05-06T09:36:18.047Z,60.74
2023-05-06T09:37:18.023Z,61.08
2023-05-06T09:38:18.026Z,59.44
2023-05-06T09:39:18.007Z,59.76
2023-05-06T09:40:18.132Z,57.08
2023-05-06T09:41:18.041Z,59.70
2023-05-06T09:42:17.973Z,59.07
2023-05-06T09:43:17.989Z,61.00
2023-05-06T09:44:17.977Z,58.31
2023-05-06T09:45:17.971Z,59.04
2023-05-06T09:46:17.993Z,60.29
2023-05-06T09:47:17.934Z,58.47
2023-05-06T09:48:17.924Z,61.03
2023-05-06T09:49:17.944Z,60.15
2023-05-06T09:50:17.958Z,59.46
2023-05-06T09:51:17.902Z,62.10
2023-05-06T09:52:17.882Z,60.24
2023-05-06T09:53:17.885Z,60.46
2023-05-06T09:54:18.018Z,58.53
2023-05-06T09:55:17.849Z,57.34
2023-05-06T09:56:17.842Z,61.76
2023-05-06T09:57:17.848Z,65.20
2023-05-06T09:58:17.848Z,65.20
2023-05-06T09:59:17.852Z,63.04
2023-05-06T10:00:17.918Z,62.60
2023-05-06T10:01:28.776Z,61.48
2023-05-06T10:02:19.994Z,65.47
2023-05-06T10:03:17.922Z,60.32
2023-05-06T10:04:17.864Z,60.76
2023-05-06T10:05:18.125Z,61.25
2023-05-06T10:06:17.764Z,61.06
2023-05-06T10:07:17.769Z,62.94
2023-05-06T10:08:17.733Z,59.77
2023-05-06T10:09:17.731Z,60.79
2023-05-06T10:10:18.332Z,62.32
2023-05-06T10:11:18.199Z,63.21
2023-05-06T10:12:18.020Z,61.86
2023-05-06T10:13:18.689Z,60.83
2023-05-06T10:14:18.808Z,61.27
2023-05-06T10:15:17.828Z,61.04
2023-05-06T10:16:17.983Z,61.82
2023-05-06T10:17:17.700Z,61.05
2023-05-06T10:18:17.737Z,60.73
2023-05-06T10:19:17.904Z,61.83
2023-05-06T10:20:17.868Z,60.84
2023-05-06T10:21:17.693Z,61.10
2023-05-06T10:22:51.448Z,62.18
2023-05-06T10:23:17.583Z,62.60
2023-05-06T10:24:17.566Z,64.97
2023-05-06T10:25:17.577Z,64.29
2023-05-06T10:26:17.640Z,64.55
2023-05-06T10:27:17.581Z,64.82
2023-05-06T10:28:20.918Z,64.22
2023-05-06T10:29:18.510Z,61.98
2023-05-06T10:30:17.658Z,63.24
2023-05-06T10:31:17.628Z,63.97
2023-05-06T10:32:17.487Z,65.65
2023-05-06T10:33:17.490Z,65.19
2023-05-06T10:34:17.464Z,63.14
2023-05-06T10:35:17.462Z,63.09
2023-05-06T10:36:17.616Z,62.10
2023-05-06T10:37:17.434Z,63.62
2023-05-06T10:38:17.420Z,64.19
2023-05-06T10:39:17.414Z,62.96
2023-05-06T10:40:17.479Z,62.88
2023-05-06T10:41:17.450Z,62.59
2023-05-06T10:42:17.451Z,63.92
2023-05-06T10:43:17.375Z,62.69
2023-05-06T10:44:17.377Z,62.52
2023-05-06T10:45:17.374Z,62.88
2023-05-06T10:46:17.404Z,63.00
2023-05-06T10:47:17.336Z,63.69
2023-05-06T10:48:17.328Z,61.72
2023-05-06T10:49:17.309Z,62.25
2023-05-06T10:50:17.351Z,61.72
2023-05-06T10:51:17.305Z,61.37
2023-05-06T10:52:17.287Z,61.74
2023-05-06T10:53:17.280Z,60.93
2023-05-06T10:54:17.343Z,61.43
2023-05-06T10:55:17.278Z,61.40
2023-05-06T10:56:17.244Z,62.17
2023-05-06T10:57:17.236Z,61.76
2023-05-06T10:58:17.357Z,62.97
2023-05-06T10:59:17.257Z,62.87
2023-05-06T11:00:18.200Z,65.12
2023-05-06T11:01:17.247Z,67.31
2023-05-06T11:02:17.233Z,67.03
2023-05-06T11:03:17.239Z,64.81
2023-05-06T11:04:17.192Z,64.16
2023-05-06T11:05:17.152Z,63.04
2023-05-06T11:06:17.157Z,65.64
2023-05-06T11:07:17.140Z,66.88
2023-05-06T11:08:17.148Z,67.40
2023-05-06T11:09:17.136Z,60.05
2023-05-06T11:10:17.108Z,58.58
2023-05-06T11:11:17.102Z,63.44
2023-05-06T11:12:17.104Z,64.76
2023-05-06T11:13:17.136Z,64.12
2023-05-06T11:14:17.115Z,59.39
2023-05-06T11:15:17.090Z,58.42
2023-05-06T11:16:17.065Z,63.52
2023-05-06T11:17:17.038Z,64.20
2023-05-06T11:18:17.023Z,65.57
2023-05-06T11:19:17.045Z,66.52
2023-05-06T11:20:17.021Z,65.06
2023-05-06T11:21:17.000Z,65.63
2023-05-06T11:22:17.005Z,60.41
2023-05-06T11:23:16.978Z,66.55
2023-05-06T11:24:16.986Z,65.32
2023-05-06T11:25:16.977Z,66.24
2023-05-06T11:26:16.933Z,65.81
2023-05-06T11:27:17.982Z,68.97
2023-05-06T11:28:16.940Z,68.81
2023-05-06T11:29:16.913Z,61.26
2023-05-06T11:30:16.997Z,63.89
2023-05-06T11:31:16.960Z,65.06
2023-05-06T11:32:16.935Z,59.71
2023-05-06T11:33:16.887Z,59.14
2023-05-06T11:34:16.869Z,60.44
2023-05-06T11:35:16.860Z,69.32
2023-05-06T11:36:16.872Z,65.84
2023-05-06T11:37:16.869Z,62.63
2023-05-06T11:38:16.827Z,68.43
2023-05-06T11:39:16.810Z,69.33
2023-05-06T11:40:16.813Z,65.90
2023-05-06T11:41:16.819Z,61.27
2023-05-06T11:42:16.820Z,63.59
2023-05-06T11:43:16.803Z,61.67
2023-05-06T11:44:16.766Z,62.98
2023-05-06T11:45:16.757Z,62.84
2023-05-06T11:46:16.794Z,60.92
2023-05-06T11:47:16.739Z,62.87
2023-05-06T11:48:16.741Z,64.00
2023-05-06T11:49:16.715Z,61.59
2023-05-06T11:50:16.724Z,62.91
2023-05-06T11:51:16.728Z,63.71
2023-05-06T11:52:16.796Z,62.20
2023-05-06T11:53:16.688Z,61.77
2023-05-06T11:54:16.682Z,61.83
2023-05-06T11:55:16.653Z,62.48
2023-05-06T11:56:16.651Z,63.27
2023-05-06T11:57:16.665Z,62.06
2023-05-06T11:58:16.653Z,61.85
2023-05-06T11:59:16.619Z,62.29
2023-05-06T12:00:16.635Z,62.38
2023-05-06T12:01:16.618Z,65.52
2023-05-06T12:02:16.783Z,66.26
2023-05-06T12:03:16.656Z,64.06
2023-05-06T12:04:16.601Z,61.98
2023-05-06T12:05:17.605Z,64.54
2023-05-06T12:06:16.546Z,61.37
2023-05-06T12:07:16.564Z,60.61
2023-05-06T12:08:26.627Z,60.06
2023-05-06T12:09:18.578Z,59.45
2023-05-06T12:10:16.519Z,60.13
2023-05-06T12:11:16.526Z,62.79
2023-05-06T12:12:16.544Z,62.50
2023-05-06T12:13:16.546Z,60.87
2023-05-06T12:14:16.484Z,60.55
2023-05-06T12:15:16.460Z,61.37
2023-05-06T12:16:17.492Z,61.16
2023-05-06T12:17:16.444Z,61.54
2023-05-06T12:18:16.530Z,62.21
2023-05-06T12:19:16.441Z,63.66
2023-05-06T12:20:16.424Z,61.76
2023-05-06T12:21:16.399Z,62.84
2023-05-06T12:22:16.450Z,61.83
2023-05-06T12:23:16.426Z,61.81
2023-05-06T12:24:16.476Z,62.67
2023-05-06T12:25:16.383Z,61.43
2023-05-06T12:26:16.364Z,64.23
2023-05-06T12:27:16.370Z,64.20
2023-05-06T12:28:16.344Z,64.10
2023-05-06T12:29:16.328Z,65.00
2023-05-06T12:30:16.328Z,64.10
2023-05-06T12:31:16.366Z,64.17
2023-05-06T12:32:16.367Z,64.54
2023-05-06T12:33:16.313Z,65.30
2023-05-06T12:34:16.401Z,63.75
2023-05-06T12:35:16.275Z,64.13
2023-05-06T12:36:16.269Z,65.38
2023-05-06T12:37:16.292Z,62.91
2023-05-06T12:38:16.241Z,62.46
2023-05-06T12:39:16.235Z,64.91
2023-05-06T12:40:16.216Z,63.17
2023-05-06T12:41:17.204Z,62.06
2023-05-06T12:42:16.241Z,60.81
2023-05-06T12:43:16.206Z,63.76
2023-05-06T12:44:16.189Z,63.33
2023-05-06T12:45:16.176Z,64.27
2023-05-06T12:46:16.205Z,63.63
2023-05-06T12:47:16.174Z,63.22
2023-05-06T12:48:16.148Z,62.78
2023-05-06T12:49:16.146Z,62.67
2023-05-06T12:50:16.236Z,61.16
2023-05-06T12:51:16.207Z,62.77
2023-05-06T12:52:16.167Z,62.11